Aline, Pennsylvania
Current Conditions -  °F | °C
As of 2:53 PM on Sunday 21 Dec 2014 (Local Time) from KSEG Reporting Station
Overcast Overcast  
Wind Chill: 34°   Ceiling: 3000
Heat Index: 34°   Visibility: 10mi
Dew Point: 21°   Wind: 3mph
Humidity: 59%   Direction: 40°NE
Pressure: 30.3"   Gusts: NA
Location:  40.6989°N, 77.0073°W
Report Text: KSEG 211953Z AUTO 04003KT 10SM OVC030 01/M06 A3030 RMK AO2 SLP265 T00111061
Loading
Personal Weather Stations






























Interactive Weather Map New forecast layout! Learn more

10-Day Weather Forecast

Advertisements
Track Severe Weather on mobile